Time;durP1;ratioP1;P1;durP2;ratioP2;P2;SDS_P1;SDS_P2;PMS_P1;PMS_P2;Temp;Humidity;BMP_temperature;BMP_pressure;BME280_temperature;BME280_humidity;BME280_pressure;Samples;Min_cycle;Max_cycle;Signal;HPM_P1;HPM_P2
2021/01/13 00:04:56;;;;;;;29.13;19.42;;;;;;;;;;10117875;28;20078;-63
2021/01/13 00:09:54;;;;;;;34.30;22.48;;;;;;;;;;10119377;28;20059;-62
2021/01/13 00:14:53;;;;;;;37.80;21.35;;;;;;;;;;10116023;28;20070;-63
2021/01/13 00:19:51;;;;;;;35.60;19.80;;;;;;;;;;10118965;28;20089;-63
2021/01/13 00:24:48;;;;;;;24.17;17.98;;;;;;;;;;10118886;28;20047;-62
2021/01/13 00:29:46;;;;;;;24.88;16.75;;;;;;;;;;10118769;28;20087;-62
2021/01/13 00:34:44;;;;;;;31.02;15.00;;;;;;;;;;10118917;28;20082;-62
2021/01/13 00:39:41;;;;;;;16.67;12.82;;;;;;;;;;10118074;28;20089;-63
2021/01/13 00:44:39;;;;;;;18.85;13.45;;;;;;;;;;10118672;28;20054;-63
2021/01/13 00:49:36;;;;;;;33.20;22.17;;;;;;;;;;10118377;28;20078;-63
2021/01/13 00:54:34;;;;;;;29.77;19.63;;;;;;;;;;10118302;28;20043;-63
2021/01/13 00:59:31;;;;;;;121.60;23.45;;;;;;;;;;10099838;28;20078;-63
2021/01/13 01:04:29;;;;;;;44.83;19.77;;;;;;;;;;10118178;28;20424;-64
2021/01/13 01:09:26;;;;;;;24.75;17.85;;;;;;;;;;10116697;28;20086;-63
2021/01/13 01:14:25;;;;;;;35.50;16.35;;;;;;;;;;10116632;28;20047;-62
2021/01/13 01:19:22;;;;;;;33.30;16.73;;;;;;;;;;10116620;28;20049;-63
2021/01/13 01:24:20;;;;;;;38.03;16.92;;;;;;;;;;10117168;28;20047;-63
2021/01/13 01:29:17;;;;;;;39.13;16.80;;;;;;;;;;10116860;28;20049;-62
2021/01/13 01:34:18;;;;;;;47.58;16.60;;;;;;;;;;10114819;28;20077;-62
2021/01/13 01:39:16;;;;;;;34.40;17.52;;;;;;;;;;10116476;28;20046;-63
2021/01/13 01:44:14;;;;;;;41.67;17.73;;;;;;;;;;10116112;28;20117;-63
2021/01/13 01:49:13;;;;;;;82.95;19.73;;;;;;;;;;10116370;28;20071;-63
2021/01/13 01:54:16;;;;;;;28.48;15.38;;;;;;;;;;10116010;28;20054;-62
2021/01/13 01:59:15;;;;;;;24.05;15.40;;;;;;;;;;10115786;28;20054;-64
2021/01/13 02:04:13;;;;;;;33.58;16.13;;;;;;;;;;10115211;28;20078;-63
2021/01/13 02:09:11;;;;;;;27.27;15.40;;;;;;;;;;10115192;28;20089;-63
2021/01/13 02:14:11;;;;;;;36.13;15.02;;;;;;;;;;10115215;28;20058;-61
2021/01/13 02:19:18;;;;;;;29.08;15.57;;;;;;;;;;10116096;28;20238;-63
2021/01/13 02:24:35;;;;;;;23.88;15.68;;;;;;;;;;10115276;28;20082;-64
2021/01/13 02:29:36;;;;;;;43.17;15.95;;;;;;;;;;10115320;28;20062;-63
2021/01/13 02:34:47;;;;;;;79.57;18.77;;;;;;;;;;10122961;28;20097;-63
2021/01/13 02:39:45;;;;;;;99.50;28.02;;;;;;;;;;10122848;28;20050;-63
2021/01/13 02:44:51;;;;;;;50.75;16.85;;;;;;;;;;10123396;28;20070;-63
2021/01/13 02:49:48;;;;;;;;;;;;;;;;;;10122841;28;20039;-63
2021/01/13 02:54:52;;;;;;;23.13;15.68;;;;;;;;;;10122844;28;19965;-63
2021/01/13 02:59:50;;;;;;;72.55;25.90;;;;;;;;;;10122686;28;20073;-63
2021/01/13 03:04:47;;;;;;;30.88;19.05;;;;;;;;;;10121912;28;20544;-64
2021/01/13 03:09:46;;;;;;;43.92;15.38;;;;;;;;;;10121871;28;20437;-63
2021/01/13 03:14:44;;;;;;;17.35;12.35;;;;;;;;;;10121574;28;20066;-63
2021/01/13 03:19:52;;;;;;;26.50;15.52;;;;;;;;;;10121294;28;20043;-63
2021/01/13 03:24:54;;;;;;;27.90;16.50;;;;;;;;;;10121239;28;20413;-63
2021/01/13 03:29:52;;;;;;;36.00;20.80;;;;;;;;;;10121277;28;20086;-63
2021/01/13 03:35:01;;;;;;;31.00;19.00;;;;;;;;;;10120483;28;20055;-63
2021/01/13 03:39:58;;;;;;;24.33;15.52;;;;;;;;;;10121077;28;20047;-64
2021/01/13 03:45:00;;;;;;;33.55;15.75;;;;;;;;;;10120201;28;20046;-64
2021/01/13 03:49:59;;;;;;;29.77;17.25;;;;;;;;;;10120954;28;20070;-63
2021/01/13 03:54:59;;;;;;;24.85;16.08;;;;;;;;;;10119825;28;20053;-64
2021/01/13 04:00:01;;;;;;;36.85;22.45;;;;;;;;;;10119301;28;20097;-64
2021/01/13 04:05:11;;;;;;;70.38;18.30;;;;;;;;;;10119650;28;20539;-63
2021/01/13 04:10:11;;;;;;;53.80;17.98;;;;;;;;;;10119292;28;20101;-62
2021/01/13 04:15:08;;;;;;;115.85;22.52;;;;;;;;;;10118085;28;20086;-63
2021/01/13 04:20:08;;;;;;;53.13;17.35;;;;;;;;;;10119388;28;20639;-63
2021/01/13 04:25:06;;;;;;;36.45;23.30;;;;;;;;;;10118762;28;20047;-64
2021/01/13 04:30:04;;;;;;;97.88;31.73;;;;;;;;;;10118975;28;20540;-62
2021/01/13 04:35:01;;;;;;;50.58;27.73;;;;;;;;;;10118240;28;20469;-62
2021/01/13 04:40:02;;;;;;;114.60;26.98;;;;;;;;;;10115904;28;20075;-63
2021/01/13 04:45:06;;;;;;;50.38;20.52;;;;;;;;;;10118370;28;20077;-61
2021/01/13 04:50:05;;;;;;;130.73;28.27;;;;;;;;;;10118011;28;20213;-63
2021/01/13 04:55:06;;;;;;;92.80;24.85;;;;;;;;;;10116673;28;20086;-63
2021/01/13 05:00:08;;;;;;;94.55;46.80;;;;;;;;;;10118105;28;20054;-63
2021/01/13 05:05:07;;;;;;;66.88;29.83;;;;;;;;;;10117652;28;20092;-61
2021/01/13 05:10:08;;;;;;;53.45;25.30;;;;;;;;;;10116485;28;20059;-62
2021/01/13 05:15:06;;;;;;;93.85;33.80;;;;;;;;;;10117485;28;20047;-62
2021/01/13 05:20:18;;;;;;;77.22;35.40;;;;;;;;;;10116596;28;20482;-63
2021/01/13 05:25:22;;;;;;;39.65;20.35;;;;;;;;;;10117026;28;20050;-64
2021/01/13 05:30:21;;;;;;;31.73;22.20;;;;;;;;;;10117236;28;20050;-62
2021/01/13 05:35:20;;;;;;;36.58;22.55;;;;;;;;;;10115559;28;20442;-62
2021/01/13 05:40:20;;;;;;;77.00;21.90;;;;;;;;;;10116563;28;20078;-64
2021/01/13 05:45:17;;;;;;;43.67;19.52;;;;;;;;;;10113377;28;20070;-62
2021/01/13 05:50:17;;;;;;;45.50;22.05;;;;;;;;;;10112119;28;20527;-62
2021/01/13 05:55:16;;;;;;;50.22;25.55;;;;;;;;;;10095370;28;20039;-64
2021/01/13 06:00:15;;;;;;;38.28;23.17;;;;;;;;;;10114666;28;20086;-64
2021/01/13 06:05:21;;;;;;;88.32;37.65;;;;;;;;;;10098608;28;20090;-63
2021/01/13 06:10:19;;;;;;;39.33;24.80;;;;;;;;;;10114982;28;20062;-63
2021/01/13 06:15:24;;;;;;;101.45;30.65;;;;;;;;;;10115557;28;20083;-63
2021/01/13 06:20:22;;;;;;;91.87;37.50;;;;;;;;;;10117408;28;20042;-63
2021/01/13 06:25:23;;;;;;;77.35;37.88;;;;;;;;;;10116165;28;20055;-62
2021/01/13 06:30:26;;;;;;;66.55;32.90;;;;;;;;;;10116277;28;20081;-62
2021/01/13 06:35:46;;;;;;;71.28;35.55;;;;;;;;;;10115224;28;20050;-62
2021/01/13 06:40:43;;;;;;;63.80;32.00;;;;;;;;;;10115066;28;20484;-63
2021/01/13 06:45:41;;;;;;;111.93;30.38;;;;;;;;;;10114914;28;20082;-63
2021/01/13 06:50:39;;;;;;;55.47;31.63;;;;;;;;;;10116473;28;20062;-62
2021/01/13 06:55:37;;;;;;;36.50;23.55;;;;;;;;;;10115389;28;20062;-63
2021/01/13 07:00:35;;;;;;;67.93;34.35;;;;;;;;;;10114952;28;20050;-62
2021/01/13 07:05:32;;;;;;;58.55;28.67;;;;;;;;;;10114573;28;20077;-63
2021/01/13 07:10:31;;;;;;;53.10;28.13;;;;;;;;;;10114656;28;20078;-62
2021/01/13 07:15:31;;;;;;;62.78;31.35;;;;;;;;;;10114879;28;20125;-63
2021/01/13 07:20:28;;;;;;;88.05;33.42;;;;;;;;;;10121133;28;20079;-62
2021/01/13 07:25:27;;;;;;;59.65;33.22;;;;;;;;;;10121228;28;20424;-61
2021/01/13 07:30:26;;;;;;;70.43;25.80;;;;;;;;;;10121581;28;20057;-63
2021/01/13 07:35:29;;;;;;;55.88;30.92;;;;;;;;;;10121606;28;20066;-63
2021/01/13 07:40:34;;;;;;;95.70;45.30;;;;;;;;;;10121194;28;20051;-63
2021/01/13 07:45:38;;;;;;;89.63;37.88;;;;;;;;;;10120212;28;20500;-63
2021/01/13 07:50:39;;;;;;;84.13;47.75;;;;;;;;;;10120839;28;20445;-63
2021/01/13 07:55:41;;;;;;;80.80;45.97;;;;;;;;;;10120236;28;20063;-62
2021/01/13 08:00:52;;;;;;;74.88;35.78;;;;;;;;;;10120205;28;20505;-63
2021/01/13 08:06:10;;;;;;;52.08;27.48;;;;;;;;;;10120077;28;20047;-64
2021/01/13 08:11:10;;;;;;;52.53;33.53;;;;;;;;;;10119006;28;20111;-63
2021/01/13 08:16:24;;;;;;;52.90;29.00;;;;;;;;;;10119128;28;20058;-63
2021/01/13 08:21:26;;;;;;;73.32;30.55;;;;;;;;;;10105838;28;20082;-62
2021/01/13 08:26:24;;;;;;;37.85;23.17;;;;;;;;;;10119977;28;20047;-63
2021/01/13 08:31:22;;;;;;;73.32;37.47;;;;;;;;;;10119463;28;20508;-63
2021/01/13 08:36:23;;;;;;;47.45;30.65;;;;;;;;;;10118531;28;20082;-64
2021/01/13 08:41:21;;;;;;;34.60;23.63;;;;;;;;;;10118111;28;20094;-64
2021/01/13 08:46:19;;;;;;;34.03;23.60;;;;;;;;;;10118227;28;20417;-64
2021/01/13 08:51:19;;;;;;;34.25;26.70;;;;;;;;;;10118399;28;20082;-63
2021/01/13 08:56:17;;;;;;;82.18;43.97;;;;;;;;;;10117522;28;20077;-62
2021/01/13 09:01:16;;;;;;;50.30;33.00;;;;;;;;;;10116164;28;20086;-62
2021/01/13 09:06:20;;;;;;;36.83;26.85;;;;;;;;;;10115768;28;20081;-62
2021/01/13 09:11:30;;;;;;;29.25;21.77;;;;;;;;;;10117308;28;20084;-62
2021/01/13 09:16:33;;;;;;;30.85;22.58;;;;;;;;;;10116005;28;20141;-63
2021/01/13 09:21:31;;;;;;;34.47;25.13;;;;;;;;;;10116066;28;20085;-63
2021/01/13 09:26:31;;;;;;;42.28;26.80;;;;;;;;;;10117240;28;20078;-62
2021/01/13 09:31:29;;;;;;;34.25;24.45;;;;;;;;;;10116681;28;20053;-63
2021/01/13 09:36:27;;;;;;;38.85;26.92;;;;;;;;;;10117078;28;20043;-62
2021/01/13 09:41:25;;;;;;;32.95;23.88;;;;;;;;;;10114490;28;20087;-63
2021/01/13 09:46:29;;;;;;;42.17;29.48;;;;;;;;;;10116736;28;20038;-63
2021/01/13 09:51:28;;;;;;;70.63;43.95;;;;;;;;;;10115658;28;20054;-63
2021/01/13 09:56:26;;;;;;;38.53;28.10;;;;;;;;;;10115970;28;20078;-63
2021/01/13 10:01:25;;;;;;;34.97;24.45;;;;;;;;;;10116431;28;20512;-63
2021/01/13 10:06:24;;;;;;;42.55;30.38;;;;;;;;;;10115577;28;20463;-63
2021/01/13 10:11:42;;;;;;;80.70;54.67;;;;;;;;;;10115464;28;20086;-63
2021/01/13 10:16:41;;;;;;;76.70;47.60;;;;;;;;;;10116410;28;20082;-63
2021/01/13 10:21:40;;;;;;;59.72;43.00;;;;;;;;;;10115394;28;20079;-63
2021/01/13 10:26:38;;;;;;;37.42;26.77;;;;;;;;;;10115903;28;20072;-62
2021/01/13 10:31:37;;;;;;;43.78;30.65;;;;;;;;;;10115795;28;20074;-62
2021/01/13 10:36:39;;;;;;;33.50;23.17;;;;;;;;;;10115588;28;20420;-62
2021/01/13 10:41:37;;;;;;;42.08;29.92;;;;;;;;;;10115035;28;20102;-62
2021/01/13 10:46:46;;;;;;;47.15;29.67;;;;;;;;;;10114924;28;20053;-63
2021/01/13 10:51:46;;;;;;;45.22;28.10;;;;;;;;;;10116175;28;20085;-63
2021/01/13 10:56:44;;;;;;;64.80;34.90;;;;;;;;;;10122095;28;20512;-64
2021/01/13 11:01:44;;;;;;;77.07;42.95;;;;;;;;;;10122888;28;20476;-64
2021/01/13 11:06:46;;;;;;;159.30;83.18;;;;;;;;;;10122817;28;20046;-64
2021/01/13 11:11:47;;;;;;;254.40;124.50;;;;;;;;;;10121840;28;20059;-64
2021/01/13 11:16:58;;;;;;;132.75;70.28;;;;;;;;;;10121979;28;20047;-64
2021/01/13 11:21:57;;;;;;;185.27;97.57;;;;;;;;;;10120565;28;20094;-64
2021/01/13 11:26:56;;;;;;;292.83;135.23;;;;;;;;;;10103868;28;20047;-63
2021/01/13 11:31:53;;;;;;;69.82;39.70;;;;;;;;;;10119801;28;20093;-62
2021/01/13 11:37:02;;;;;;;53.00;32.55;;;;;;;;;;10119828;28;20042;-63
2021/01/13 11:42:04;;;;;;;55.90;35.65;;;;;;;;;;10119315;28;20508;-63
2021/01/13 11:47:19;;;;;;;45.10;29.50;;;;;;;;;;10119577;28;20059;-63
2021/01/13 11:52:18;;;;;;;58.63;33.50;;;;;;;;;;10119799;28;20086;-64
2021/01/13 11:57:17;;;;;;;55.20;28.83;;;;;;;;;;10119652;28;20051;-64
2021/01/13 12:02:18;;;;;;;60.03;33.47;;;;;;;;;;10118989;28;20083;-64
2021/01/13 12:07:16;;;;;;;96.03;50.25;;;;;;;;;;10119417;28;20046;-64
2021/01/13 12:12:27;;;;;;;131.98;57.63;;;;;;;;;;10118971;28;20093;-63
2021/01/13 12:17:24;;;;;;;127.35;57.42;;;;;;;;;;10118933;28;20105;-63
2021/01/13 12:22:31;;;;;;;69.53;39.28;;;;;;;;;;10118613;28;20086;-64
2021/01/13 12:27:30;;;;;;;58.88;32.65;;;;;;;;;;10118547;28;20085;-63
2021/01/13 12:32:27;;;;;;;53.38;32.58;;;;;;;;;;10118542;28;20042;-63
2021/01/13 12:37:24;;;;;;;78.25;44.55;;;;;;;;;;10118366;28;20049;-63
2021/01/13 12:42:27;;;;;;;84.40;55.60;;;;;;;;;;10118090;28;20082;-65
2021/01/13 12:47:26;;;;;;;49.45;33.75;;;;;;;;;;10117415;28;20085;-63
2021/01/13 12:52:23;;;;;;;34.30;24.42;;;;;;;;;;10116845;28;20502;-63
2021/01/13 12:57:20;;;;;;;42.78;29.65;;;;;;;;;;10117816;28;20072;-63
2021/01/13 13:02:17;;;;;;;37.45;25.90;;;;;;;;;;10099952;28;20058;-63
2021/01/13 13:07:16;;;;;;;46.17;29.17;;;;;;;;;;10117305;28;20070;-63
2021/01/13 13:12:14;;;;;;;67.30;43.78;;;;;;;;;;10117471;28;20481;-63
2021/01/13 13:17:11;;;;;;;42.30;28.35;;;;;;;;;;10115961;28;20082;-64
2021/01/13 13:22:09;;;;;;;68.65;37.20;;;;;;;;;;10116857;28;20497;-63
2021/01/13 13:27:08;;;;;;;70.55;43.72;;;;;;;;;;10116595;28;20054;-63
2021/01/13 13:32:06;;;;;;;43.55;28.23;;;;;;;;;;10116439;28;20074;-64
2021/01/13 13:37:03;;;;;;;97.82;53.97;;;;;;;;;;10115811;28;20054;-63
2021/01/13 13:42:01;;;;;;;93.15;55.83;;;;;;;;;;10115826;28;20081;-64
2021/01/13 13:46:59;;;;;;;72.35;45.95;;;;;;;;;;10115947;28;20043;-64
2021/01/13 13:51:56;;;;;;;66.25;42.17;;;;;;;;;;10115395;28;20085;-63
2021/01/13 13:56:54;;;;;;;48.08;30.20;;;;;;;;;;10115829;28;20089;-63
2021/01/13 14:01:51;;;;;;;69.75;42.95;;;;;;;;;;10114877;28;20504;-62
2021/01/13 14:06:50;;;;;;;66.00;38.38;;;;;;;;;;10116526;28;20035;-64
2021/01/13 14:11:47;;;;;;;85.75;48.15;;;;;;;;;;10114858;28;20074;-63
2021/01/13 14:16:47;;;;;;;57.25;36.53;;;;;;;;;;10114939;28;20082;-64
2021/01/13 14:21:44;;;;;;;55.88;32.67;;;;;;;;;;10115567;28;20081;-65
2021/01/13 14:26:42;;;;;;;53.35;27.88;;;;;;;;;;10118464;28;20437;-63
2021/01/13 14:31:40;;;;;;;64.68;33.08;;;;;;;;;;10123944;28;20039;-64
2021/01/13 14:36:37;;;;;;;46.08;28.45;;;;;;;;;;10123391;28;20098;-64
2021/01/13 14:41:34;;;;;;;58.30;34.97;;;;;;;;;;10123267;28;20150;-64
2021/01/13 14:46:32;;;;;;;69.95;43.92;;;;;;;;;;10121525;28;20074;-63
2021/01/13 14:51:30;;;;;;;76.97;44.38;;;;;;;;;;10122722;28;20511;-63
2021/01/13 14:56:29;;;;;;;47.83;31.80;;;;;;;;;;10123038;28;20074;-63
2021/01/13 15:01:27;;;;;;;66.72;37.28;;;;;;;;;;10122547;28;20058;-64
2021/01/13 15:06:25;;;;;;;50.20;28.13;;;;;;;;;;10121908;28;20086;-63
2021/01/13 15:11:23;;;;;;;70.22;40.55;;;;;;;;;;10121996;28;20069;-63
2021/01/13 15:16:22;;;;;;;51.53;29.58;;;;;;;;;;10122315;28;20070;-63
2021/01/13 15:21:20;;;;;;;57.42;35.42;;;;;;;;;;10122067;28;20508;-64
2021/01/13 15:26:18;;;;;;;65.13;40.88;;;;;;;;;;10121026;28;20105;-64
2021/01/13 15:31:18;;;;;;;62.95;42.03;;;;;;;;;;10103670;28;20600;-63
2021/01/13 15:36:16;;;;;;;55.92;34.22;;;;;;;;;;10121974;28;20050;-64
2021/01/13 15:41:13;;;;;;;63.15;38.97;;;;;;;;;;10120191;28;20070;-64
2021/01/13 15:46:12;;;;;;;58.72;39.83;;;;;;;;;;10120907;28;20078;-64
2021/01/13 15:51:09;;;;;;;34.40;23.23;;;;;;;;;;10120977;28;20043;-63
2021/01/13 15:56:07;;;;;;;31.77;22.27;;;;;;;;;;10120126;28;20094;-61
2021/01/13 16:01:05;;;;;;;28.10;20.73;;;;;;;;;;10112095;28;20386;-62
2021/01/13 16:06:04;;;;;;;49.58;35.42;;;;;;;;;;10117686;28;20082;-63
2021/01/13 16:11:02;;;;;;;28.48;21.13;;;;;;;;;;10119925;28;20062;-62
2021/01/13 16:15:59;;;;;;;45.92;29.27;;;;;;;;;;10119850;28;20448;-63
2021/01/13 16:20:57;;;;;;;91.47;50.97;;;;;;;;;;10097457;28;20094;-62
2021/01/13 16:25:55;;;;;;;34.88;25.75;;;;;;;;;;10117023;28;20077;-62
2021/01/13 16:30:54;;;;;;;39.03;25.85;;;;;;;;;;10118184;28;20078;-61
2021/01/13 16:35:51;;;;;;;52.00;36.80;;;;;;;;;;10118098;28;20042;-61
2021/01/13 16:40:49;;;;;;;41.75;29.75;;;;;;;;;;10118823;28;20432;-62
2021/01/13 16:45:48;;;;;;;37.33;27.90;;;;;;;;;;10113153;28;20086;-61
2021/01/13 16:50:45;;;;;;;45.83;27.92;;;;;;;;;;10118681;28;20050;-61
2021/01/13 16:55:43;;;;;;;62.65;31.42;;;;;;;;;;10117969;28;20038;-60
2021/01/13 17:00:42;;;;;;;37.83;26.70;;;;;;;;;;10117974;28;20382;-61
2021/01/13 17:05:40;;;;;;;32.75;22.55;;;;;;;;;;10117211;28;20079;-61
2021/01/13 17:10:38;;;;;;;32.60;21.90;;;;;;;;;;10117174;28;20109;-62
2021/01/13 17:15:35;;;;;;;32.47;20.45;;;;;;;;;;10117813;28;20414;-64
2021/01/13 17:20:33;;;;;;;35.33;24.15;;;;;;;;;;10116602;28;20109;-63
2021/01/13 17:25:31;;;;;;;30.10;19.77;;;;;;;;;;10116858;28;20077;-62
2021/01/13 17:30:29;;;;;;;30.95;19.45;;;;;;;;;;10116652;28;20085;-61
2021/01/13 17:35:27;;;;;;;43.55;31.17;;;;;;;;;;10116770;28;20069;-62
2021/01/13 17:40:25;;;;;;;42.53;26.30;;;;;;;;;;10116767;28;20111;-61
2021/01/13 17:45:24;;;;;;;42.45;28.08;;;;;;;;;;10114412;28;20086;-61
2021/01/13 17:50:23;;;;;;;104.22;50.22;;;;;;;;;;10115949;28;20090;-62
2021/01/13 17:55:22;;;;;;;48.80;31.75;;;;;;;;;;10116307;28;20085;-62
2021/01/13 18:00:20;;;;;;;45.42;27.05;;;;;;;;;;10114599;28;20063;-62
2021/01/13 18:05:20;;;;;;;55.15;34.35;;;;;;;;;;10116052;28;20089;-61
2021/01/13 18:10:18;;;;;;;59.58;35.88;;;;;;;;;;10115428;28;20471;-62
2021/01/13 18:15:17;;;;;;;78.57;46.50;;;;;;;;;;10114672;28;20551;-63
2021/01/13 18:20:14;;;;;;;40.22;25.45;;;;;;;;;;10115638;28;20042;-62
2021/01/13 18:25:13;;;;;;;55.50;33.15;;;;;;;;;;10114979;28;20093;-62
2021/01/13 18:30:11;;;;;;;39.90;26.00;;;;;;;;;;10115137;28;20314;-63
2021/01/13 18:35:09;;;;;;;63.83;38.45;;;;;;;;;;10115489;28;20074;-64
2021/01/13 18:40:07;;;;;;;53.50;31.48;;;;;;;;;;10114538;28;20066;-63
2021/01/13 18:45:07;;;;;;;85.13;47.30;;;;;;;;;;10114915;28;20539;-63
2021/01/13 18:50:05;;;;;;;45.53;25.52;;;;;;;;;;10114854;28;20078;-62
2021/01/13 18:55:03;;;;;;;64.72;39.00;;;;;;;;;;10114566;28;20086;-62
2021/01/13 19:00:00;;;;;;;58.95;31.17;;;;;;;;;;10114745;28;20097;-62
2021/01/13 19:04:59;;;;;;;51.10;32.33;;;;;;;;;;10113926;28;20078;-63
2021/01/13 19:09:57;;;;;;;76.25;45.00;;;;;;;;;;10113707;28;20055;-62
2021/01/13 19:14:56;;;;;;;67.03;39.38;;;;;;;;;;10100713;28;20058;-62
2021/01/13 19:19:56;;;;;;;48.45;27.73;;;;;;;;;;10121156;28;20077;-64
2021/01/13 19:24:55;;;;;;;53.80;32.85;;;;;;;;;;10121303;28;20086;-61
2021/01/13 19:29:53;;;;;;;42.67;27.33;;;;;;;;;;10121269;28;20050;-63
2021/01/13 19:34:50;;;;;;;84.20;50.83;;;;;;;;;;10103544;28;20046;-63
2021/01/13 19:39:51;;;;;;;43.00;29.60;;;;;;;;;;10121238;28;20039;-63
2021/01/13 19:44:50;;;;;;;72.32;39.58;;;;;;;;;;10120963;28;20078;-63
2021/01/13 19:49:47;;;;;;;51.85;31.70;;;;;;;;;;10120097;28;20074;-63
2021/01/13 19:54:44;;;;;;;59.30;32.50;;;;;;;;;;10120798;28;20053;-62
2021/01/13 19:59:41;;;;;;;60.45;32.65;;;;;;;;;;10120366;28;20066;-62
2021/01/13 20:04:40;;;;;;;61.15;34.38;;;;;;;;;;10120154;28;20074;-63
2021/01/13 20:09:38;;;;;;;47.95;25.77;;;;;;;;;;10118888;28;20096;-63
2021/01/13 20:14:35;;;;;;;53.70;31.02;;;;;;;;;;10119335;28;20436;-61
2021/01/13 20:19:33;;;;;;;60.20;31.17;;;;;;;;;;10119488;28;20077;-62
2021/01/13 20:24:31;;;;;;;60.03;31.48;;;;;;;;;;10118978;28;20468;-62
2021/01/13 20:29:28;;;;;;;79.47;40.85;;;;;;;;;;10118626;28;20500;-63
2021/01/13 20:34:29;;;;;;;59.72;32.25;;;;;;;;;;10118570;28;20051;-64
2021/01/13 20:39:26;;;;;;;63.92;35.42;;;;;;;;;;10118384;28;20086;-62
2021/01/13 20:44:25;;;;;;;45.20;25.13;;;;;;;;;;10118240;28;20078;-62
2021/01/13 20:49:23;;;;;;;60.72;27.52;;;;;;;;;;10118047;28;20513;-62
2021/01/13 20:54:20;;;;;;;65.03;33.60;;;;;;;;;;10117269;28;20182;-63
2021/01/13 20:59:18;;;;;;;47.58;26.88;;;;;;;;;;10100247;28;20051;-62
2021/01/13 21:04:17;;;;;;;42.83;25.40;;;;;;;;;;10117066;28;20461;-63
2021/01/13 21:09:15;;;;;;;53.03;29.60;;;;;;;;;;10117604;28;20091;-65
2021/01/13 21:14:13;;;;;;;49.80;27.23;;;;;;;;;;10117223;28;20083;-63
2021/01/13 21:19:10;;;;;;;40.72;23.13;;;;;;;;;;10117672;28;20038;-63
2021/01/13 21:24:09;;;;;;;54.45;30.45;;;;;;;;;;10099859;28;20094;-64
2021/01/13 21:29:07;;;;;;;39.97;26.10;;;;;;;;;;10117586;28;20074;-63
2021/01/13 21:34:04;;;;;;;37.20;22.38;;;;;;;;;;10116346;28;20462;-63
2021/01/13 21:39:01;;;;;;;46.33;27.42;;;;;;;;;;10115992;28;20151;-64
2021/01/13 21:44:00;;;;;;;44.13;24.88;;;;;;;;;;10116004;28;20086;-64
2021/01/13 21:48:57;;;;;;;33.08;22.23;;;;;;;;;;10115658;28;20473;-64
2021/01/13 21:53:54;;;;;;;42.55;23.88;;;;;;;;;;10116206;28;20051;-63
2021/01/13 21:58:52;;;;;;;68.15;31.40;;;;;;;;;;10116151;28;20046;-63
2021/01/13 22:03:50;;;;;;;34.17;19.80;;;;;;;;;;10116292;28;20089;-63
2021/01/13 22:08:47;;;;;;;36.28;19.40;;;;;;;;;;10115742;28;20069;-64
2021/01/13 22:13:45;;;;;;;27.83;16.75;;;;;;;;;;10115937;28;20082;-62
2021/01/13 22:18:43;;;;;;;23.15;16.35;;;;;;;;;;10115787;28;20066;-61
2021/01/13 22:23:42;;;;;;;28.63;17.35;;;;;;;;;;10115099;28;20083;-62
2021/01/13 22:28:39;;;;;;;30.95;19.20;;;;;;;;;;10115378;28;20043;-62
2021/01/13 22:33:36;;;;;;;24.27;14.93;;;;;;;;;;10115310;28;20074;-62
2021/01/13 22:38:34;;;;;;;26.75;17.33;;;;;;;;;;10114529;28;20051;-63
2021/01/13 22:43:32;;;;;;;22.75;14.60;;;;;;;;;;10115078;28;20077;-63
2021/01/13 22:48:30;;;;;;;21.23;15.00;;;;;;;;;;10118775;28;20066;-64
2021/01/13 22:53:27;;;;;;;26.20;14.98;;;;;;;;;;10105725;28;20054;-63
2021/01/13 22:58:24;;;;;;;22.50;14.48;;;;;;;;;;10122865;28;20078;-64
2021/01/13 23:03:22;;;;;;;22.75;14.82;;;;;;;;;;10122201;28;20078;-64
2021/01/13 23:08:20;;;;;;;27.20;16.67;;;;;;;;;;10121936;28;20054;-64
2021/01/13 23:13:18;;;;;;;28.02;15.52;;;;;;;;;;10043803;29;20075;-63
2021/01/13 23:18:15;;;;;;;24.52;15.90;;;;;;;;;;10044030;29;20074;-64
2021/01/13 23:23:14;;;;;;;24.73;15.18;;;;;;;;;;10043571;29;20043;-63
2021/01/13 23:28:11;;;;;;;25.00;16.88;;;;;;;;;;10043008;29;20101;-64
2021/01/13 23:33:08;;;;;;;26.13;16.05;;;;;;;;;;10042890;29;20052;-63
2021/01/13 23:38:06;;;;;;;29.27;17.38;;;;;;;;;;10042904;29;20284;-63
2021/01/13 23:43:05;;;;;;;27.98;17.98;;;;;;;;;;10042629;29;20047;-63
2021/01/13 23:48:03;;;;;;;23.85;17.90;;;;;;;;;;10042256;29;20098;-63
2021/01/13 23:53:00;;;;;;;22.77;15.60;;;;;;;;;;10042296;29;20490;-63
2021/01/13 23:57:57;;;;;;;23.75;15.27;;;;;;;;;;10041589;29;20094;-64
